Time;durP1;ratioP1;P1;durP2;ratioP2;P2;SDS_P1;SDS_P2;PMS_P1;PMS_P2;Temp;Humidity;BMP_temperature;BMP_pressure;BME280_temperature;BME280_humidity;BME280_pressure;Samples;Min_cycle;Max_cycle;Signal;HPM_P1;HPM_P2
2021/09/05 00:01:48;;;;;;;8.87;7.17;;;12.00;99.90;;;;;;4987353;28;20180;-81
2021/09/05 00:04:14;;;;;;;9.17;6.97;;;;;;;;;;4997300;28;20196;-80
2021/09/05 00:06:40;;;;;;;9.80;7.23;;;12.00;99.90;;;;;;4995614;28;20187;-81
2021/09/05 00:09:06;;;;;;;11.20;7.40;;;11.90;99.90;;;;;;4982321;28;20207;-82
2021/09/05 00:11:32;;;;;;;10.03;8.03;;;11.90;99.90;;;;;;4981983;28;20216;-81
2021/09/05 00:13:57;;;;;;;8.87;7.63;;;11.90;99.90;;;;;;4981823;28;20653;-81
2021/09/05 00:16:23;;;;;;;10.50;7.30;;;11.90;99.90;;;;;;4981189;28;20177;-81
2021/09/05 00:18:49;;;;;;;11.27;8.10;;;11.90;99.90;;;;;;4983221;28;20173;-81
2021/09/05 00:21:15;;;;;;;11.50;8.23;;;11.90;99.90;;;;;;4982578;28;20217;-81
2021/09/05 00:23:41;;;;;;;11.80;7.57;;;11.90;99.90;;;;;;4982566;28;20259;-81
2021/09/05 00:26:08;;;;;;;10.73;7.43;;;11.90;99.90;;;;;;4981361;28;20212;-81
2021/09/05 00:28:34;;;;;;;10.87;8.20;;;11.80;99.90;;;;;;4982139;28;20204;-81
2021/09/05 00:31:00;;;;;;;12.10;7.73;;;11.80;99.90;;;;;;4980773;28;20176;-81
2021/09/05 00:33:26;;;;;;;11.53;7.33;;;11.80;99.90;;;;;;4981061;28;20268;-81
2021/09/05 00:35:52;;;;;;;9.20;7.10;;;11.80;99.90;;;;;;4981349;28;20617;-80
2021/09/05 00:38:18;;;;;;;10.30;7.60;;;11.80;99.90;;;;;;4981823;28;20168;-81
2021/09/05 00:40:43;;;;;;;12.77;8.00;;;11.80;99.90;;;;;;4980267;28;20287;-81
2021/09/05 00:43:09;;;;;;;10.27;7.37;;;;;;;;;;4988922;28;20625;-81
2021/09/05 00:45:35;;;;;;;11.40;7.80;;;11.70;99.90;;;;;;4991220;28;20179;-81
2021/09/05 00:48:01;;;;;;;11.00;7.40;;;11.70;99.90;;;;;;4993320;28;20204;-81
2021/09/05 00:50:28;;;;;;;9.67;7.50;;;11.70;99.90;;;;;;4998582;28;20206;-81
2021/09/05 00:52:54;;;;;;;8.03;6.83;;;11.70;99.90;;;;;;4988619;28;20192;-81
2021/09/05 00:55:20;;;;;;;11.67;8.27;;;11.70;99.90;;;;;;4981114;28;20181;-81
2021/09/05 00:57:47;;;;;;;11.83;7.40;;;11.60;99.90;;;;;;4980803;28;20267;-81
2021/09/05 01:00:13;;;;;;;8.93;7.30;;;11.60;99.90;;;;;;4980670;28;20211;-81
2021/09/05 01:02:39;;;;;;;10.47;7.57;;;11.50;99.90;;;;;;4980391;28;20184;-81
2021/09/05 01:05:06;;;;;;;12.60;7.60;;;11.50;99.90;;;;;;4981758;28;20200;-81
2021/09/05 01:07:33;;;;;;;10.80;7.50;;;11.50;99.90;;;;;;4980453;28;20188;-81
2021/09/05 01:09:59;;;;;;;10.73;7.77;;;11.50;99.90;;;;;;4980419;28;20215;-81
2021/09/05 01:12:26;;;;;;;12.00;7.37;;;11.50;99.90;;;;;;4979255;28;20180;-81
2021/09/05 01:14:52;;;;;;;9.80;7.60;;;11.40;99.90;;;;;;4981750;28;20238;-81
2021/09/05 01:17:17;;;;;;;10.33;7.83;;;11.40;99.90;;;;;;4980129;28;20247;-81
2021/09/05 01:19:44;;;;;;;12.07;8.13;;;;;;;;;;4981401;28;20198;-82
2021/09/05 01:22:09;;;;;;;10.10;8.03;;;11.40;99.90;;;;;;4980028;28;20177;-81
2021/09/05 01:24:35;;;;;;;10.53;8.00;;;11.40;99.90;;;;;;4981244;28;20198;-81
2021/09/05 01:27:01;;;;;;;10.03;7.33;;;;;;;;;;4981619;28;20172;-81
2021/09/05 01:29:27;;;;;;;11.93;7.97;;;11.30;99.90;;;;;;4980519;28;20280;-81
2021/09/05 01:31:54;;;;;;;11.30;8.67;;;11.40;99.90;;;;;;4981592;28;20215;-81
2021/09/05 01:34:23;;;;;;;10.87;8.23;;;11.30;99.90;;;;;;4979957;28;20205;-81
2021/09/05 01:36:51;;;;;;;9.33;7.60;;;11.30;99.90;;;;;;4979716;28;20187;-82
2021/09/05 01:39:19;;;;;;;12.37;8.70;;;11.40;99.90;;;;;;4981174;28;20207;-81
2021/09/05 01:41:45;;;;;;;11.13;8.43;;;11.40;99.90;;;;;;4980467;28;20622;-81
2021/09/05 01:44:13;;;;;;;11.37;8.40;;;11.30;99.90;;;;;;4981875;28;20762;-82
2021/09/05 01:46:39;;;;;;;12.43;8.30;;;11.30;99.90;;;;;;4984162;28;20197;-81
2021/09/05 01:49:06;;;;;;;16.97;9.33;;;11.30;99.90;;;;;;4993244;28;20287;-81
2021/09/05 01:51:31;;;;;;;10.37;8.33;;;11.30;99.90;;;;;;4996147;28;20207;-81
2021/09/05 01:53:57;;;;;;;11.60;8.70;;;11.30;99.90;;;;;;4988795;28;20172;-81
2021/09/05 01:56:24;;;;;;;12.13;8.60;;;11.20;99.90;;;;;;4980123;28;20287;-81
2021/09/05 01:58:50;;;;;;;11.47;8.90;;;11.20;99.90;;;;;;4980916;28;20255;-81
2021/09/05 02:01:16;;;;;;;10.73;8.77;;;;;;;;;;4981201;28;20577;-81
2021/09/05 02:03:42;;;;;;;11.30;8.53;;;11.20;99.90;;;;;;4979370;28;20287;-82
2021/09/05 02:06:07;;;;;;;10.33;8.10;;;11.20;99.90;;;;;;4979265;28;20179;-81
2021/09/05 02:08:33;;;;;;;11.93;8.53;;;11.10;99.90;;;;;;4979343;28;20766;-82
2021/09/05 02:10:59;;;;;;;13.20;8.80;;;11.10;99.90;;;;;;4979368;28;20215;-81
2021/09/05 02:13:25;;;;;;;10.20;8.03;;;11.10;99.90;;;;;;4979519;28;20176;-81
2021/09/05 02:15:50;;;;;;;11.47;8.40;;;11.10;99.90;;;;;;4979720;28;20218;-81
2021/09/05 02:18:17;;;;;;;12.73;9.07;;;11.10;99.90;;;;;;4979161;28;20179;-81
2021/09/05 02:20:43;;;;;;;14.30;8.60;;;11.10;99.90;;;;;;4978688;28;20214;-81
2021/09/05 02:23:08;;;;;;;10.40;8.23;;;11.10;99.90;;;;;;4980252;28;20172;-81
2021/09/05 02:25:34;;;;;;;9.73;8.13;;;11.10;99.90;;;;;;4979279;28;20176;-81
2021/09/05 02:27:59;;;;;;;11.90;8.13;;;11.10;99.90;;;;;;4980417;28;20195;-81
2021/09/05 02:30:25;;;;;;;12.13;8.63;;;11.10;99.90;;;;;;4979246;28;20200;-82
2021/09/05 02:32:51;;;;;;;13.10;8.47;;;;;;;;;;4980367;28;20179;-81
2021/09/05 02:35:17;;;;;;;10.53;8.57;;;11.10;99.90;;;;;;4979021;28;20223;-81
2021/09/05 02:37:43;;;;;;;13.80;8.97;;;11.10;99.90;;;;;;4980076;28;20174;-81
2021/09/05 02:40:09;;;;;;;13.80;8.67;;;11.10;99.90;;;;;;4980221;28;20200;-82
2021/09/05 02:42:35;;;;;;;11.33;8.93;;;11.10;99.90;;;;;;4978556;28;20269;-82
2021/09/05 02:45:03;;;;;;;12.80;8.90;;;11.00;99.90;;;;;;4980333;28;20665;-81
2021/09/05 02:47:29;;;;;;;12.10;9.07;;;11.00;99.90;;;;;;4979097;28;20190;-82
2021/09/05 02:49:55;;;;;;;11.77;9.10;;;10.90;99.90;;;;;;4979756;28;20194;-81
2021/09/05 02:52:21;;;;;;;13.00;8.30;;;10.90;99.90;;;;;;4979833;28;20172;-82
2021/09/05 02:54:46;;;;;;;13.60;8.73;;;10.80;99.90;;;;;;4978601;28;20557;-81
2021/09/05 02:57:12;;;;;;;10.33;8.20;;;10.80;99.90;;;;;;4978295;28;20235;-81
2021/09/05 02:59:38;;;;;;;11.00;8.10;;;;;;;;;;4979168;28;20195;-81
2021/09/05 03:02:04;;;;;;;8.90;7.50;;;10.70;99.90;;;;;;4979647;28;20209;-81
2021/09/05 03:04:30;;;;;;;9.47;8.07;;;10.70;99.90;;;;;;4977057;28;20545;-81
2021/09/05 03:06:56;;;;;;;12.87;8.33;;;10.70;99.90;;;;;;4977921;28;20634;-81
2021/09/05 03:09:22;;;;;;;11.40;7.57;;;10.60;99.90;;;;;;4985079;28;20199;-81
2021/09/05 03:11:48;;;;;;;13.23;8.50;;;10.60;99.90;;;;;;4981521;28;20183;-82
2021/09/05 03:14:14;;;;;;;12.33;9.50;;;10.60;99.90;;;;;;4979699;28;20184;-82
2021/09/05 03:16:40;;;;;;;10.93;8.77;;;10.60;99.90;;;;;;4980103;28;20173;-82
2021/09/05 03:19:05;;;;;;;10.23;8.10;;;10.50;99.90;;;;;;4978442;28;20211;-81
2021/09/05 03:21:31;;;;;;;14.23;8.23;;;10.60;99.90;;;;;;4978893;28;20526;-81
2021/09/05 03:23:57;;;;;;;10.77;8.20;;;10.60;99.90;;;;;;4979605;28;20701;-81
2021/09/05 03:26:22;;;;;;;12.60;9.17;;;10.60;99.90;;;;;;4978289;28;20192;-81
2021/09/05 03:28:48;;;;;;;11.77;8.70;;;10.50;99.90;;;;;;4979897;28;20207;-81
2021/09/05 03:31:13;;;;;;;11.00;8.27;;;10.50;99.90;;;;;;4980045;28;20262;-82
2021/09/05 03:33:39;;;;;;;10.50;8.17;;;10.50;99.90;;;;;;4979036;28;20190;-82
2021/09/05 03:36:05;;;;;;;8.90;7.17;;;10.50;99.90;;;;;;4983715;28;20188;-81
2021/09/05 03:38:32;;;;;;;12.47;8.40;;;10.50;99.90;;;;;;4986279;28;20185;-80
2021/09/05 03:40:57;;;;;;;10.23;8.77;;;10.50;99.90;;;;;;4989910;28;20195;-81
2021/09/05 03:43:23;;;;;;;11.53;8.63;;;10.50;99.90;;;;;;5000367;28;20192;-81
2021/09/05 03:45:48;;;;;;;10.90;8.20;;;10.40;99.90;;;;;;5000327;28;20176;-81
2021/09/05 03:48:14;;;;;;;9.83;7.83;;;10.40;99.90;;;;;;4990076;28;20340;-82
2021/09/05 03:50:40;;;;;;;11.60;8.37;;;10.40;99.90;;;;;;4982179;28;20204;-82
2021/09/05 03:53:06;;;;;;;10.17;8.13;;;10.40;99.90;;;;;;4981952;28;20191;-82
2021/09/05 03:55:31;;;;;;;8.90;7.30;;;10.40;99.90;;;;;;4984529;28;20259;-83
2021/09/05 03:57:57;;;;;;;10.27;7.70;;;10.40;99.90;;;;;;4983483;28;20203;-81
2021/09/05 04:00:23;;;;;;;10.63;8.23;;;10.50;99.90;;;;;;4985828;28;20630;-81
2021/09/05 04:02:49;;;;;;;12.50;8.83;;;10.40;99.90;;;;;;4983346;28;20191;-82
2021/09/05 04:05:15;;;;;;;10.60;8.00;;;10.40;99.90;;;;;;4982005;28;20546;-81
2021/09/05 04:08:00;;;;;;;10.57;8.30;;;10.40;99.90;;;;;;4981632;28;20266;-81
2021/09/05 04:10:26;;;;;;;11.03;8.47;;;10.40;99.90;;;;;;4982130;28;20680;-82
2021/09/05 04:12:52;;;;;;;10.27;7.83;;;10.40;99.90;;;;;;4982776;28;20185;-81
2021/09/05 04:15:18;;;;;;;11.73;8.37;;;10.40;99.90;;;;;;4982953;28;20259;-82
2021/09/05 04:17:43;;;;;;;10.97;8.50;;;10.40;99.90;;;;;;4982942;28;20180;-82
2021/09/05 04:20:09;;;;;;;13.77;9.13;;;10.50;99.90;;;;;;4982788;28;20203;-82
2021/09/05 04:22:35;;;;;;;11.87;8.97;;;10.50;99.90;;;;;;4981450;28;20184;-82
2021/09/05 04:25:02;;;;;;;11.93;8.53;;;10.50;99.90;;;;;;4981454;28;20190;-82
2021/09/05 04:27:28;;;;;;;10.67;8.60;;;10.50;99.90;;;;;;4982660;28;20662;-81
2021/09/05 04:29:53;;;;;;;11.07;7.90;;;10.50;99.90;;;;;;4981084;28;20224;-82
2021/09/05 04:32:20;;;;;;;13.63;8.40;;;10.50;99.90;;;;;;4982456;28;20177;-82
2021/09/05 04:34:47;;;;;;;14.00;8.17;;;10.50;99.90;;;;;;4982037;28;20215;-82
2021/09/05 04:37:13;;;;;;;9.73;7.07;;;10.50;99.90;;;;;;4981798;28;20529;-82
2021/09/05 04:39:38;;;;;;;10.53;8.07;;;10.50;99.90;;;;;;4986996;28;20201;-82
2021/09/05 04:42:04;;;;;;;10.53;7.50;;;10.50;99.90;;;;;;4981241;28;20197;-81
2021/09/05 04:44:30;;;;;;;11.17;7.63;;;10.50;99.90;;;;;;4982781;28;20546;-82
2021/09/05 04:46:55;;;;;;;12.33;7.70;;;10.50;99.90;;;;;;4982283;28;20176;-82
2021/09/05 04:49:21;;;;;;;10.13;7.43;;;10.50;99.90;;;;;;4980419;28;20212;-82
2021/09/05 04:51:47;;;;;;;9.43;7.47;;;10.40;99.90;;;;;;4981252;28;20179;-82
2021/09/05 04:54:12;;;;;;;12.33;8.53;;;10.40;99.90;;;;;;4980599;28;20185;-82
2021/09/05 04:56:38;;;;;;;11.23;8.73;;;10.40;99.90;;;;;;4981299;28;20178;-82
2021/09/05 04:59:04;;;;;;;11.20;8.40;;;10.40;99.90;;;;;;4980545;28;20227;-82
2021/09/05 05:01:29;;;;;;;12.83;7.63;;;10.30;99.90;;;;;;4980632;28;20181;-82
2021/09/05 05:03:55;;;;;;;10.37;7.83;;;10.30;99.90;;;;;;4980732;28;20186;-83
2021/09/05 05:06:21;;;;;;;11.03;8.00;;;10.30;99.90;;;;;;4982268;28;20208;-82
2021/09/05 05:08:47;;;;;;;9.57;7.80;;;10.30;99.90;;;;;;4982940;28;20263;-82
2021/09/05 05:11:16;;;;;;;10.00;7.70;;;10.30;99.90;;;;;;4981200;28;20191;-82
2021/09/05 05:13:43;;;;;;;10.07;8.17;;;10.30;99.90;;;;;;4981663;28;20234;-82
2021/09/05 05:16:08;;;;;;;9.63;7.27;;;10.30;99.90;;;;;;4982170;28;20259;-82
2021/09/05 05:18:34;;;;;;;10.70;7.80;;;10.40;99.90;;;;;;4981930;28;20215;-81
2021/09/05 05:21:00;;;;;;;9.03;7.77;;;10.40;99.90;;;;;;4980495;28;20187;-82
2021/09/05 05:23:26;;;;;;;9.77;7.53;;;10.40;99.90;;;;;;4981867;28;20545;-81
2021/09/05 05:25:52;;;;;;;12.10;8.63;;;10.50;99.90;;;;;;4980861;28;20238;-82
2021/09/05 05:28:18;;;;;;;12.50;8.13;;;10.50;99.90;;;;;;4981365;28;20568;-82
2021/09/05 05:30:44;;;;;;;9.60;8.00;;;10.60;99.90;;;;;;4981934;28;20666;-82
2021/09/05 05:33:09;;;;;;;10.50;7.57;;;10.60;99.90;;;;;;4981856;28;20209;-81
2021/09/05 05:35:35;;;;;;;8.73;7.30;;;10.70;99.90;;;;;;4980482;28;20192;-81
2021/09/05 05:38:01;;;;;;;10.53;7.80;;;10.80;99.90;;;;;;4995494;28;20243;-81
2021/09/05 05:40:27;;;;;;;11.17;8.17;;;10.90;99.90;;;;;;4996470;28;20217;-81
2021/09/05 05:42:53;;;;;;;12.37;7.30;;;10.90;99.90;;;;;;4990177;28;20191;-82
2021/09/05 05:45:18;;;;;;;10.10;7.83;;;11.00;99.90;;;;;;4979505;28;20762;-81
2021/09/05 05:47:45;;;;;;;8.17;6.80;;;11.10;99.90;;;;;;4981414;28;20290;-81
2021/09/05 05:50:10;;;;;;;9.33;7.50;;;11.20;99.90;;;;;;4980138;28;20208;-81
2021/09/05 05:52:37;;;;;;;9.30;7.40;;;11.20;99.90;;;;;;4980144;28;20235;-81
2021/09/05 05:55:03;;;;;;;9.23;7.17;;;11.20;99.90;;;;;;4980757;28;20184;-82
2021/09/05 05:57:28;;;;;;;8.27;6.93;;;11.30;99.90;;;;;;4978405;28;20195;-81
2021/09/05 05:59:54;;;;;;;8.13;6.97;;;11.40;99.90;;;;;;4978518;28;20196;-81
2021/09/05 06:02:20;;;;;;;11.20;7.07;;;11.50;99.90;;;;;;4978113;28;20236;-81
2021/09/05 06:04:46;;;;;;;10.93;7.03;;;11.50;99.90;;;;;;4979365;28;20255;-80
2021/09/05 06:07:12;;;;;;;8.90;6.93;;;11.60;99.90;;;;;;4988560;28;20184;-81
2021/09/05 06:09:41;;;;;;;9.20;6.80;;;11.60;99.90;;;;;;4980683;28;20804;-81
2021/09/05 06:12:08;;;;;;;7.93;6.73;;;11.70;99.90;;;;;;4982709;28;20180;-81
2021/09/05 06:14:34;;;;;;;7.37;6.47;;;11.80;99.90;;;;;;4980933;28;20263;-81
2021/09/05 06:17:00;;;;;;;7.70;6.23;;;11.90;99.90;;;;;;4980830;28;20183;-81
2021/09/05 06:19:27;;;;;;;9.77;7.23;;;12.00;99.90;;;;;;4980716;28;20208;-81
2021/09/05 06:21:52;;;;;;;10.00;6.60;;;12.10;99.90;;;;;;4979169;28;20184;-81
2021/09/05 06:24:18;;;;;;;8.87;6.60;;;12.20;99.90;;;;;;4979454;28;20188;-81
2021/09/05 06:26:44;;;;;;;9.77;6.63;;;12.20;99.90;;;;;;4981458;28;20188;-81
2021/09/05 06:29:09;;;;;;;7.43;5.73;;;12.30;99.90;;;;;;4980455;28;20212;-81
2021/09/05 06:31:35;;;;;;;9.63;6.77;;;12.40;99.90;;;;;;4981516;28;20180;-81
2021/09/05 06:34:01;;;;;;;9.33;6.80;;;12.50;99.90;;;;;;4978514;28;20231;-81
2021/09/05 06:36:26;;;;;;;8.03;6.37;;;12.70;99.90;;;;;;4982739;28;20176;-81
2021/09/05 06:38:52;;;;;;;7.27;6.40;;;12.80;99.90;;;;;;4988134;28;20214;-80
2021/09/05 06:41:18;;;;;;;7.80;6.43;;;12.90;99.90;;;;;;4993931;28;20180;-81
2021/09/05 06:43:43;;;;;;;10.20;6.63;;;13.00;99.90;;;;;;4994415;28;20254;-80
2021/09/05 06:46:09;;;;;;;8.27;5.97;;;13.10;99.90;;;;;;4995093;28;20200;-81
2021/09/05 06:48:35;;;;;;;8.63;6.13;;;13.10;99.90;;;;;;4979993;28;20207;-81
2021/09/05 06:51:00;;;;;;;6.43;5.43;;;13.20;99.90;;;;;;4980027;28;20645;-81
2021/09/05 06:53:26;;;;;;;7.77;6.17;;;13.30;99.90;;;;;;4978149;28;20179;-81
2021/09/05 06:55:51;;;;;;;8.00;6.37;;;13.40;99.90;;;;;;4979863;28;20538;-81
2021/09/05 06:58:17;;;;;;;8.97;6.07;;;13.60;99.90;;;;;;4979795;28;20182;-81
2021/09/05 07:00:43;;;;;;;8.00;6.47;;;13.60;99.90;;;;;;4978793;28;20578;-81
2021/09/05 07:03:08;;;;;;;7.73;6.10;;;13.80;99.90;;;;;;4980123;28;20713;-81
2021/09/05 07:05:34;;;;;;;7.40;6.23;;;13.90;99.90;;;;;;4978254;28;20180;-81
2021/09/05 07:08:00;;;;;;;7.83;5.93;;;14.00;99.90;;;;;;4978344;28;20235;-81
2021/09/05 07:10:26;;;;;;;7.67;5.80;;;14.20;99.90;;;;;;4982215;28;20234;-82
2021/09/05 07:12:52;;;;;;;7.67;6.10;;;14.30;99.90;;;;;;4982605;28;20267;-82
2021/09/05 07:15:18;;;;;;;8.23;5.73;;;14.40;99.90;;;;;;4983790;28;20172;-81
2021/09/05 07:17:44;;;;;;;7.27;5.60;;;14.50;99.90;;;;;;4984537;28;20173;-82
2021/09/05 07:20:10;;;;;;;8.00;5.47;;;14.60;99.90;;;;;;4984919;28;20203;-81
2021/09/05 07:22:36;;;;;;;6.87;5.17;;;14.80;99.90;;;;;;4984053;28;20512;-81
2021/09/05 07:25:02;;;;;;;6.47;5.60;;;15.00;99.90;;;;;;4984415;28;20168;-81
2021/09/05 07:27:29;;;;;;;7.37;6.03;;;15.10;99.90;;;;;;4985121;28;20175;-81
2021/09/05 07:29:55;;;;;;;8.03;5.83;;;15.20;99.90;;;;;;4997366;28;20200;-81
2021/09/05 07:32:21;;;;;;;7.07;5.63;;;15.30;99.90;;;;;;4997859;28;20181;-80
2021/09/05 07:34:47;;;;;;;9.73;6.10;;;15.40;99.90;;;;;;4992748;28;20258;-81
2021/09/05 07:37:14;;;;;;;6.47;5.43;;;15.50;99.90;;;;;;4983602;28;20263;-82
2021/09/05 07:39:40;;;;;;;8.53;5.03;;;15.80;99.90;;;;;;4981885;28;20613;-82
2021/09/05 07:42:06;;;;;;;8.17;5.00;;;16.00;99.90;;;;;;4983366;28;20198;-81
2021/09/05 07:44:31;;;;;;;7.50;5.03;;;16.30;99.90;;;;;;4983567;28;20203;-81
2021/09/05 07:46:58;;;;;;;7.97;4.67;;;16.60;99.90;;;;;;4982293;28;20266;-81
2021/09/05 07:49:25;;;;;;;6.57;5.17;;;17.00;99.90;;;;;;4981305;28;20696;-83
2021/09/05 07:51:50;;;;;;;6.53;5.17;;;17.30;99.90;;;;;;4981532;28;20180;-82
2021/09/05 07:54:16;;;;;;;6.60;5.50;;;17.70;99.90;;;;;;4981535;28;20203;-82
2021/09/05 07:56:42;;;;;;;6.37;5.13;;;18.00;99.90;;;;;;4982442;28;20183;-81
2021/09/05 07:59:08;;;;;;;14.43;5.23;;;18.40;99.90;;;;;;4982628;28;20290;-81
2021/09/05 08:01:33;;;;;;;6.23;5.27;;;19.00;99.90;;;;;;4980951;28;20265;-82
2021/09/05 08:03:59;;;;;;;8.00;4.90;;;19.70;99.90;;;;;;4981309;28;20208;-81
2021/09/05 08:06:26;;;;;;;6.27;5.57;;;20.50;99.90;;;;;;4983010;28;20213;-81
2021/09/05 08:08:52;;;;;;;9.97;4.70;;;21.70;99.90;;;;;;4980996;28;20238;-82
2021/09/05 08:11:18;;;;;;;7.53;4.97;;;21.70;99.90;;;;;;4981271;28;20178;-82
2021/09/05 08:13:44;;;;;;;5.97;4.63;;;22.40;99.90;;;;;;4982113;28;20202;-82
2021/09/05 08:16:09;;;;;;;6.10;5.27;;;23.00;99.90;;;;;;4980574;28;20652;-81
2021/09/05 08:18:37;;;;;;;6.00;4.70;;;24.10;99.90;;;;;;4981392;28;20183;-82
2021/09/05 08:21:05;;;;;;;5.53;4.93;;;24.00;99.90;;;;;;4982350;28;20188;-81
2021/09/05 08:23:31;;;;;;;6.30;4.77;;;24.40;99.90;;;;;;4982301;28;20287;-81
2021/09/05 08:25:57;;;;;;;6.77;5.23;;;24.70;99.90;;;;;;4988901;28;20212;-81
2021/09/05 08:28:22;;;;;;;4.67;4.27;;;25.00;99.90;;;;;;4980458;28;20302;-82
2021/09/05 08:30:48;;;;;;;8.00;5.20;;;25.10;99.90;;;;;;4982528;28;20542;-81
2021/09/05 08:33:17;;;;;;;7.80;5.20;;;25.20;99.90;;;;;;4982360;28;20180;-82
2021/09/05 08:35:44;;;;;;;7.10;4.90;;;25.30;99.90;;;;;;4981380;28;20200;-80
2021/09/05 08:38:10;;;;;;;5.50;4.23;;;25.30;99.90;;;;;;4981899;28;20185;-80
2021/09/05 08:40:42;;;;;;;6.47;4.87;;;25.60;99.90;;;;;;4985274;28;20669;-80
2021/09/05 08:43:09;;;;;;;4.93;4.43;;;25.80;99.90;;;;;;4999576;28;20173;-80
2021/09/05 08:45:35;;;;;;;5.30;4.67;;;25.90;99.90;;;;;;4997406;28;20182;-77
2021/09/05 08:48:03;;;;;;;7.67;4.63;;;26.00;99.90;;;;;;4980805;28;20211;-80
2021/09/05 08:50:29;;;;;;;5.13;4.20;;;26.00;99.90;;;;;;4980644;28;20194;-79
2021/09/05 08:52:55;;;;;;;5.00;4.50;;;26.00;99.90;;;;;;4982001;28;20619;-79
2021/09/05 08:55:21;;;;;;;5.43;4.57;;;25.90;99.90;;;;;;4981537;28;20200;-78
2021/09/05 08:57:47;;;;;;;5.37;4.60;;;25.60;99.90;;;;;;4998087;28;20182;-79
2021/09/05 09:00:13;;;;;;;7.27;4.57;;;25.70;99.90;;;;;;4979926;28;20204;-78
2021/09/05 09:02:54;;;;;;;4.90;4.37;;;25.80;99.90;;;;;;4981958;28;20187;-76
2021/09/05 09:05:39;;;;;;;5.67;4.50;;;25.90;99.90;;;;;;4994754;28;20271;-77
2021/09/05 09:08:11;;;;;;;5.93;4.70;;;25.70;99.90;;;;;;4980715;28;20250;-77
2021/09/05 09:10:46;;;;;;;6.83;5.10;;;25.70;99.90;;;;;;4981861;28;20203;-77
2021/09/05 09:13:23;;;;;;;5.50;4.80;;;25.60;99.90;;;;;;4976649;28;20172;-78
2021/09/05 09:15:49;;;;;;;7.73;5.87;;;25.70;99.90;;;;;;4979419;28;20725;-77
2021/09/05 09:18:26;;;;;;;5.87;4.50;;;25.90;99.90;;;;;;4979664;28;20212;-79
2021/09/05 09:20:54;;;;;;;7.30;4.90;;;25.90;99.90;;;;;;4982353;28;20793;-79
2021/09/05 09:23:25;;;;;;;5.93;4.77;;;25.90;99.90;;;;;;4982143;28;20263;-77
2021/09/05 09:25:54;;;;;;;5.47;4.10;;;25.90;99.90;;;;;;4979185;28;20212;-79
2021/09/05 09:28:28;;;;;;;6.23;4.97;;;25.90;99.90;;;;;;4991825;28;20751;-80
2021/09/05 09:30:57;;;;;;;4.90;4.30;;;25.90;99.90;;;;;;4996978;28;20205;-78
2021/09/05 09:33:24;;;;;;;4.73;4.20;;;26.00;99.90;;;;;;4997897;28;20175;-80
2021/09/05 09:35:56;;;;;;;5.30;4.70;;;26.20;99.90;;;;;;4997534;28;20671;-78
2021/09/05 09:38:22;;;;;;;6.00;5.40;;;26.20;99.90;;;;;;4986328;28;20186;-78
2021/09/05 09:40:49;;;;;;;6.00;4.90;;;26.10;99.90;;;;;;4985528;28;20256;-78
2021/09/05 09:43:19;;;;;;;4.83;4.30;;;26.10;99.90;;;;;;4984045;28;20202;-79
2021/09/05 09:45:45;;;;;;;4.43;3.77;;;26.00;99.90;;;;;;4987209;28;20203;-79
2021/09/05 09:48:20;;;;;;;4.20;3.80;;;26.10;99.90;;;;;;4988988;28;20195;-79
2021/09/05 09:50:46;;;;;;;6.43;4.20;;;26.20;99.90;;;;;;4984952;28;20196;-79
2021/09/05 09:53:12;;;;;;;6.17;3.93;;;26.20;99.40;;;;;;4978339;28;20234;-78
2021/09/05 09:55:41;;;;;;;4.77;4.07;;;26.30;99.90;;;;;;4980050;28;20176;-80
2021/09/05 09:58:07;;;;;;;4.17;3.77;;;26.80;99.90;;;;;;4979757;28;20202;-80
2021/09/05 10:00:34;;;;;;;3.87;3.50;;;27.10;99.30;;;;;;4976918;28;20681;-81
2021/09/05 10:03:00;;;;;;;4.97;4.40;;;27.20;99.90;;;;;;4978436;28;20275;-80
2021/09/05 10:05:30;;;;;;;6.13;5.50;;;27.30;99.90;;;;;;4977890;28;20208;-80
2021/09/05 10:07:56;;;;;;;7.03;5.50;;;27.40;98.30;;;;;;4979746;28;20586;-81
2021/09/05 10:10:23;;;;;;;4.33;3.80;;;27.40;99.90;;;;;;4978325;28;20203;-81
2021/09/05 10:12:51;;;;;;;5.60;4.17;;;27.40;99.60;;;;;;4979755;28;20190;-80
2021/09/05 10:15:18;;;;;;;4.67;3.73;;;27.50;99.90;;;;;;4979779;28;20216;-81
2021/09/05 10:17:46;;;;;;;5.40;4.17;;;27.60;99.90;;;;;;4980136;28;20172;-80
2021/09/05 10:20:14;;;;;;;5.53;4.37;;;27.70;99.90;;;;;;4980884;28;20344;-80
2021/09/05 10:22:41;;;;;;;4.57;3.97;;;27.50;98.20;;;;;;4982610;28;20239;-80
2021/09/05 10:25:07;;;;;;;4.23;3.83;;;27.60;97.80;;;;;;4984615;28;20188;-79
2021/09/05 10:27:33;;;;;;;4.30;3.90;;;27.30;96.00;;;;;;4984706;28;20184;-79
2021/09/05 10:30:23;;;;;;;6.13;3.60;;;27.20;94.80;;;;;;4978024;28;20608;-80
2021/09/05 10:33:02;;;;;;;5.10;3.70;;;27.10;96.40;;;;;;4988853;28;20180;-80
2021/09/05 10:35:27;;;;;;;5.13;3.77;;;27.00;95.80;;;;;;4978148;28;20202;-77
2021/09/05 10:38:11;;;;;;;4.40;4.00;;;27.20;96.60;;;;;;4978416;28;20196;-81
2021/09/05 10:40:49;;;;;;;4.30;3.90;;;27.30;95.00;;;;;;4978716;28;20280;-81
2021/09/05 10:43:16;;;;;;;5.30;3.90;;;27.50;95.40;;;;;;4978559;28;20751;-81
2021/09/05 10:45:44;;;;;;;5.43;3.67;;;27.50;94.30;;;;;;4979728;28;20180;-80
2021/09/05 10:48:30;;;;;;;6.03;3.60;;;27.50;97.00;;;;;;4979781;28;20229;-80
2021/09/05 10:51:12;;;;;;;3.77;3.30;;;27.70;95.50;;;;;;4978602;28;20202;-80
2021/09/05 10:53:54;;;;;;;4.13;3.60;;;27.70;95.40;;;;;;4979475;28;20793;-80
2021/09/05 10:56:21;;;;;;;6.00;3.90;;;27.80;95.00;;;;;;4980003;28;20182;-80
2021/09/05 10:58:56;;;;;;;4.40;3.50;;;28.20;91.70;;;;;;4979580;28;20179;-80
2021/09/05 11:01:39;;;;;;;4.57;4.17;;;28.10;92.40;;;;;;4978230;28;20181;-80
2021/09/05 11:04:17;;;;;;;4.33;3.87;;;28.20;93.10;;;;;;4978334;28;20185;-80
2021/09/05 11:06:46;;;;;;;3.97;3.60;;;28.20;93.40;;;;;;4978239;28;20183;-80
2021/09/05 11:09:18;;;;;;;5.90;3.93;;;28.50;95.30;;;;;;4978949;28;20290;-80
2021/09/05 11:12:11;;;;;;;4.27;3.87;;;28.70;91.40;;;;;;4977955;28;20235;-80
2021/09/05 11:14:49;;;;;;;3.93;3.53;;;28.40;90.40;;;;;;4977379;28;20613;-80
2021/09/05 11:17:20;;;;;;;6.63;4.33;;;28.50;90.40;;;;;;4977672;28;20185;-79
2021/09/05 11:20:04;;;;;;;5.53;3.93;;;28.70;94.90;;;;;;4976968;28;20574;-79
2021/09/05 11:22:34;;;;;;;4.80;4.30;;;28.80;93.80;;;;;;4979379;28;20192;-80
2021/09/05 11:25:20;;;;;;;4.27;3.70;;;29.10;88.00;;;;;;4977870;28;20609;-80
2021/09/05 11:28:06;;;;;;;4.20;3.80;;;29.20;90.80;;;;;;4978903;28;20182;-80
2021/09/05 11:30:38;;;;;;;6.53;4.10;;;29.60;89.90;;;;;;4977509;28;20197;-79
2021/09/05 11:33:10;;;;;;;4.20;3.90;;;29.80;90.20;;;;;;4978710;28;20186;-80
2021/09/05 11:35:40;;;;;;;4.97;3.90;;;29.90;84.70;;;;;;4977137;28;20196;-80
2021/09/05 11:38:06;;;;;;;4.03;3.63;;;30.10;81.80;;;;;;4978026;28;20182;-80
2021/09/05 11:40:47;;;;;;;4.03;3.63;;;30.10;89.60;;;;;;4977360;28;20201;-80
2021/09/05 11:43:14;;;;;;;4.97;3.90;;;30.40;82.50;;;;;;4978875;28;20627;-80
2021/09/05 11:45:41;;;;;;;5.33;3.60;;;30.40;82.30;;;;;;4977734;28;20183;-80
2021/09/05 11:48:08;;;;;;;5.93;3.50;;;30.30;75.80;;;;;;4982386;28;20256;-79
2021/09/05 11:50:36;;;;;;;4.20;3.63;;;30.10;80.60;;;;;;4992400;28;20195;-79
2021/09/05 11:53:01;;;;;;;5.17;3.90;;;30.50;82.20;;;;;;4997555;28;20161;-79
2021/09/05 11:55:27;;;;;;;4.40;3.40;;;31.20;87.70;;;;;;4999460;28;20234;-79
2021/09/05 11:57:58;;;;;;;4.20;3.60;;;31.40;77.70;;;;;;4997448;28;20200;-80
2021/09/05 12:00:24;;;;;;;4.20;3.80;;;31.00;77.60;;;;;;4981066;28;20273;-79
2021/09/05 12:02:50;;;;;;;4.23;3.40;;;30.90;74.70;;;;;;4982312;28;20658;-79
2021/09/05 12:05:17;;;;;;;5.33;3.17;;;30.80;76.70;;;;;;4986781;28;20646;-79
2021/09/05 12:07:42;;;;;;;4.00;3.60;;;31.00;80.00;;;;;;4986606;28;20265;-80
2021/09/05 12:10:10;;;;;;;4.33;3.20;;;31.30;70.90;;;;;;4983207;28;20601;-80
2021/09/05 12:12:40;;;;;;;3.40;3.10;;;31.50;74.30;;;;;;4982467;28;20184;-80
2021/09/05 12:15:20;;;;;;;3.80;3.40;;;31.90;70.20;;;;;;4982284;28;20628;-80
2021/09/05 12:17:50;;;;;;;3.73;3.43;;;32.20;73.90;;;;;;4982902;28;20176;-80
2021/09/05 12:20:18;;;;;;;4.13;3.57;;;32.70;72.00;;;;;;4981880;28;20243;-79
2021/09/05 12:22:55;;;;;;;3.63;3.33;;;32.90;69.00;;;;;;4982601;28;20188;-80
2021/09/05 12:25:31;;;;;;;3.77;3.40;;;33.20;75.70;;;;;;4982257;28;20209;-80
2021/09/05 12:28:05;;;;;;;3.60;3.17;;;33.30;69.10;;;;;;4981052;28;20614;-80
2021/09/05 12:30:38;;;;;;;4.13;3.67;;;33.20;70.30;;;;;;4981613;28;20204;-80
2021/09/05 12:33:04;;;;;;;4.53;4.03;;;33.00;65.20;;;;;;4982646;28;20640;-80
2021/09/05 12:35:30;;;;;;;4.40;4.00;;;32.60;64.30;;;;;;4982342;28;20291;-80
2021/09/05 12:38:06;;;;;;;4.50;4.10;;;32.70;71.20;;;;;;4981191;28;20185;-80
2021/09/05 12:40:40;;;;;;;4.87;3.50;;;33.10;67.00;;;;;;4981039;28;20204;-80
2021/09/05 12:43:06;;;;;;;4.00;3.60;;;32.90;67.50;;;;;;4982015;28;20169;-80
2021/09/05 12:45:32;;;;;;;4.07;3.67;;;32.60;63.50;;;;;;4980544;28;20235;-80
2021/09/05 12:48:18;;;;;;;4.47;4.07;;;33.10;61.20;;;;;;4981606;28;20214;-80